sensor_id;sensor_type;location;lat;lon;timestamp;pressure;altitude;pressure_sealevel;temperature;humidity
71424;BME280;59240;51.370;-0.486;2023-03-01T00:01:00;103171.06;;;7.11;66.97
71424;BME280;59240;51.370;-0.486;2023-03-01T00:03:27;103160.38;;;7.00;66.17
71424;BME280;59240;51.370;-0.486;2023-03-01T00:05:54;103169.34;;;7.11;66.07
71424;BME280;59240;51.370;-0.486;2023-03-01T00:08:20;103168.50;;;7.12;66.39
71424;BME280;59240;51.370;-0.486;2023-03-01T00:10:47;103167.59;;;7.10;66.39
71424;BME280;59240;51.370;-0.486;2023-03-01T00:13:13;103179.75;;;7.13;66.22
71424;BME280;59240;51.370;-0.486;2023-03-01T00:15:41;103178.88;;;7.12;66.41
71424;BME280;59240;51.370;-0.486;2023-03-01T00:18:08;103190.91;;;7.10;65.95
71424;BME280;59240;51.370;-0.486;2023-03-01T00:20:34;103196.03;;;7.07;65.65
71424;BME280;59240;51.370;-0.486;2023-03-01T00:23:01;103191.59;;;7.05;65.64
71424;BME280;59240;51.370;-0.486;2023-03-01T00:25:27;103187.09;;;6.99;65.84
71424;BME280;59240;51.370;-0.486;2023-03-01T00:27:54;103183.50;;;6.94;65.30
71424;BME280;59240;51.370;-0.486;2023-03-01T00:30:20;103178.97;;;6.87;65.87
71424;BME280;59240;51.370;-0.486;2023-03-01T00:32:47;103198.09;;;6.92;65.35
71424;BME280;59240;51.370;-0.486;2023-03-01T00:35:13;103190.13;;;6.86;64.80
71424;BME280;59240;51.370;-0.486;2023-03-01T00:37:40;103188.38;;;6.85;65.18
71424;BME280;59240;51.370;-0.486;2023-03-01T00:40:08;103184.00;;;6.82;65.13
71424;BME280;59240;51.370;-0.486;2023-03-01T00:42:36;103189.13;;;6.81;65.08
71424;BME280;59240;51.370;-0.486;2023-03-01T00:45:04;103190.78;;;6.79;65.10
71424;BME280;59240;51.370;-0.486;2023-03-01T00:47:31;103183.78;;;6.76;65.63
71424;BME280;59240;51.370;-0.486;2023-03-01T00:49:57;103186.34;;;6.75;65.66
71424;BME280;59240;51.370;-0.486;2023-03-01T00:52:24;103174.09;;;6.71;64.83
71424;BME280;59240;51.370;-0.486;2023-03-01T00:54:52;103116.16;;;6.40;65.33
71424;BME280;59240;51.370;-0.486;2023-03-01T00:57:19;103173.19;;;6.69;64.62
71424;BME280;59240;51.370;-0.486;2023-03-01T00:59:45;103177.44;;;6.67;65.42
71424;BME280;59240;51.370;-0.486;2023-03-01T01:02:11;103165.22;;;6.63;64.86
71424;BME280;59240;51.370;-0.486;2023-03-01T01:04:38;103170.50;;;6.66;65.65
71424;BME280;59240;51.370;-0.486;2023-03-01T01:07:05;103170.50;;;6.66;65.00
71424;BME280;59240;51.370;-0.486;2023-03-01T01:09:31;103169.81;;;6.71;65.61
71424;BME280;59240;51.370;-0.486;2023-03-01T01:11:58;103161.91;;;6.67;64.97
71424;BME280;59240;51.370;-0.486;2023-03-01T01:14:24;103181.03;;;6.72;64.68
71424;BME280;59240;51.370;-0.486;2023-03-01T01:16:51;103164.41;;;6.65;64.65
71424;BME280;59240;51.370;-0.486;2023-03-01T01:19:18;103170.50;;;6.66;65.16
71424;BME280;59240;51.370;-0.486;2023-03-01T01:21:45;103175.69;;;6.66;65.20
71424;BME280;59240;51.370;-0.486;2023-03-01T01:24:11;103118.50;;;6.33;65.06
71424;BME280;59240;51.370;-0.486;2023-03-01T01:26:38;103135.19;;;6.42;64.50
71424;BME280;59240;51.370;-0.486;2023-03-01T01:29:05;103166.13;;;6.65;65.01
71424;BME280;59240;51.370;-0.486;2023-03-01T01:31:34;103160.81;;;6.60;64.84
71424;BME280;59240;51.370;-0.486;2023-03-01T01:34:04;103179.09;;;6.65;65.55
71424;BME280;59240;51.370;-0.486;2023-03-01T01:36:31;103168.63;;;6.62;64.69
71424;BME280;59240;51.370;-0.486;2023-03-01T01:38:58;103157.41;;;6.61;64.67
71424;BME280;59240;51.370;-0.486;2023-03-01T01:41:26;103144.00;;;6.47;65.33
71424;BME280;59240;51.370;-0.486;2023-03-01T01:47:16;103167.72;;;6.60;65.80
71424;BME280;59240;51.370;-0.486;2023-03-01T01:49:49;103154.78;;;6.60;65.70
71424;BME280;59240;51.370;-0.486;2023-03-01T01:52:24;103150.25;;;6.54;65.44
71424;BME280;59240;51.370;-0.486;2023-03-01T02:02:41;103151.97;;;6.53;64.84
71424;BME280;59240;51.370;-0.486;2023-03-01T02:05:16;103128.34;;;6.44;65.13
71424;BME280;59240;51.370;-0.486;2023-03-01T02:07:46;103096.50;;;6.20;64.95
71424;BME280;59240;51.370;-0.486;2023-03-01T02:10:14;103131.91;;;6.46;64.94
71424;BME280;59240;51.370;-0.486;2023-03-01T02:12:41;103106.44;;;6.33;64.91
71424;BME280;59240;51.370;-0.486;2023-03-01T02:15:08;103105.56;;;6.33;65.98
71424;BME280;59240;51.370;-0.486;2023-03-01T02:17:35;103118.84;;;6.43;65.70
71424;BME280;59240;51.370;-0.486;2023-03-01T02:22:39;103100.22;;;6.28;65.55
71424;BME280;59240;51.370;-0.486;2023-03-01T02:25:29;103115.28;;;6.40;66.43
71424;BME280;59240;51.370;-0.486;2023-03-01T02:28:08;103117.72;;;6.35;66.81
71424;BME280;59240;51.370;-0.486;2023-03-01T02:30:38;103106.44;;;6.33;65.85
71424;BME280;59240;51.370;-0.486;2023-03-01T02:33:26;103111.66;;;6.35;66.62
71424;BME280;59240;51.370;-0.486;2023-03-01T02:35:54;103108.22;;;6.36;67.46
71424;BME280;59240;51.370;-0.486;2023-03-01T02:38:21;103106.50;;;6.36;66.77
71424;BME280;59240;51.370;-0.486;2023-03-01T02:40:51;103097.66;;;6.29;67.85
71424;BME280;59240;51.370;-0.486;2023-03-01T02:43:19;103100.63;;;6.40;68.06
71424;BME280;59240;51.370;-0.486;2023-03-01T02:45:50;103090.91;;;6.33;67.21
71424;BME280;59240;51.370;-0.486;2023-03-01T02:48:18;103097.19;;;6.41;68.05
71424;BME280;59240;51.370;-0.486;2023-03-01T02:50:52;103100.63;;;6.40;68.11
71424;BME280;59240;51.370;-0.486;2023-03-01T02:53:52;103062.09;;;6.24;68.56
71424;BME280;59240;51.370;-0.486;2023-03-01T02:56:21;103034.06;;;6.11;68.74
71424;BME280;59240;51.370;-0.486;2023-03-01T02:58:48;103085.09;;;6.40;67.50
71424;BME280;59240;51.370;-0.486;2023-03-01T03:01:19;103095.44;;;6.40;67.68
71424;BME280;59240;51.370;-0.486;2023-03-01T03:03:46;103092.03;;;6.41;68.12
71424;BME280;59240;51.370;-0.486;2023-03-01T03:06:13;103070.28;;;6.36;68.33
71424;BME280;59240;51.370;-0.486;2023-03-01T03:08:40;103086.88;;;6.43;69.58
71424;BME280;59240;51.370;-0.486;2023-03-01T03:11:07;103074.69;;;6.39;68.19
71424;BME280;59240;51.370;-0.486;2023-03-01T03:13:33;103072.03;;;6.37;68.64
71424;BME280;59240;51.370;-0.486;2023-03-01T03:16:02;103065.84;;;6.32;68.56
71424;BME280;59240;51.370;-0.486;2023-03-01T03:18:28;103043.19;;;6.25;69.22
71424;BME280;59240;51.370;-0.486;2023-03-01T03:20:55;103072.97;;;6.39;69.53
71424;BME280;59240;51.370;-0.486;2023-03-01T03:23:22;103062.69;;;6.42;68.45
71424;BME280;59240;51.370;-0.486;2023-03-01T03:25:49;103071.38;;;6.44;69.05
71424;BME280;59240;51.370;-0.486;2023-03-01T03:28:16;103062.66;;;6.41;68.52
71424;BME280;59240;51.370;-0.486;2023-03-01T03:30:43;103068.81;;;6.44;68.44
71424;BME280;59240;51.370;-0.486;2023-03-01T03:33:11;103061.88;;;6.43;69.35
71424;BME280;59240;51.370;-0.486;2023-03-01T03:35:47;103062.81;;;6.45;69.82
71424;BME280;59240;51.370;-0.486;2023-03-01T03:38:16;103061.81;;;6.42;69.56
71424;BME280;59240;51.370;-0.486;2023-03-01T03:40:45;103056.69;;;6.43;69.00
71424;BME280;59240;51.370;-0.486;2023-03-01T03:43:16;103052.34;;;6.42;69.29
71424;BME280;59240;51.370;-0.486;2023-03-01T03:45:47;103054.97;;;6.44;69.44
71424;BME280;59240;51.370;-0.486;2023-03-01T03:48:15;103054.09;;;6.43;69.93
71424;BME280;59240;51.370;-0.486;2023-03-01T03:50:48;103051.44;;;6.40;70.05
71424;BME280;59240;51.370;-0.486;2023-03-01T03:53:16;103047.16;;;6.42;69.71
71424;BME280;59240;51.370;-0.486;2023-03-01T03:55:43;103049.59;;;6.38;70.20
71424;BME280;59240;51.370;-0.486;2023-03-01T03:58:10;103041.78;;;6.36;69.49
71424;BME280;59240;51.370;-0.486;2023-03-01T04:00:42;103040.13;;;6.38;70.39
71424;BME280;59240;51.370;-0.486;2023-03-01T04:03:10;103043.53;;;6.37;70.64
71424;BME280;59240;51.370;-0.486;2023-03-01T04:05:38;103040.91;;;6.36;69.88
71424;BME280;59240;51.370;-0.486;2023-03-01T04:08:05;103025.97;;;6.27;70.14
71424;BME280;59240;51.370;-0.486;2023-03-01T04:10:45;103032.28;;;6.35;70.48
71424;BME280;59240;51.370;-0.486;2023-03-01T04:13:14;103032.91;;;6.28;70.73
71424;BME280;59240;51.370;-0.486;2023-03-01T04:15:41;103023.19;;;6.21;71.02
71424;BME280;59240;51.370;-0.486;2023-03-01T04:18:12;103039.88;;;6.30;70.89
71424;BME280;59240;51.370;-0.486;2023-03-01T04:20:39;103024.06;;;6.21;71.85
71424;BME280;59240;51.370;-0.486;2023-03-01T04:23:17;103004.88;;;6.15;71.42
71424;BME280;59240;51.370;-0.486;2023-03-01T04:25:51;103028.63;;;6.28;70.86
71424;BME280;59240;51.370;-0.486;2023-03-01T04:28:27;103024.22;;;6.26;71.12
71424;BME280;59240;51.370;-0.486;2023-03-01T04:30:56;103016.47;;;6.26;71.30
71424;BME280;59240;51.370;-0.486;2023-03-01T04:33:24;103015.50;;;6.24;71.64
71424;BME280;59240;51.370;-0.486;2023-03-01T04:35:51;103003.13;;;6.14;71.58
71424;BME280;59240;51.370;-0.486;2023-03-01T04:38:19;103007.72;;;6.22;70.83
71424;BME280;59240;51.370;-0.486;2023-03-01T04:40:47;103003.41;;;6.23;71.39
71424;BME280;59240;51.370;-0.486;2023-03-01T04:43:14;103005.91;;;6.20;71.71
71424;BME280;59240;51.370;-0.486;2023-03-01T04:45:41;102996.97;;;6.10;71.29
71424;BME280;59240;51.370;-0.486;2023-03-01T04:48:08;103008.31;;;6.14;72.05
71424;BME280;59240;51.370;-0.486;2023-03-01T04:50:35;102994.44;;;6.12;72.05
71424;BME280;59240;51.370;-0.486;2023-03-01T04:53:03;103002.28;;;6.15;71.77
71424;BME280;59240;51.370;-0.486;2023-03-01T04:55:29;102983.03;;;6.05;71.73
71424;BME280;59240;51.370;-0.486;2023-03-01T04:57:56;103009.13;;;6.13;72.55
71424;BME280;59240;51.370;-0.486;2023-03-01T05:00:23;103009.13;;;6.13;71.16
71424;BME280;59240;51.370;-0.486;2023-03-01T05:02:52;103003.13;;;6.14;71.54
71424;BME280;59240;51.370;-0.486;2023-03-01T05:05:34;103003.13;;;6.14;71.45
71424;BME280;59240;51.370;-0.486;2023-03-01T05:08:06;102973.22;;;5.96;72.85
71424;BME280;59240;51.370;-0.486;2023-03-01T05:10:35;102975.19;;;6.03;72.65
71424;BME280;59240;51.370;-0.486;2023-03-01T05:13:02;102999.75;;;6.16;71.73
71424;BME280;59240;51.370;-0.486;2023-03-01T05:15:31;103004.03;;;6.16;72.02
71424;BME280;59240;51.370;-0.486;2023-03-01T05:17:59;103005.72;;;6.14;72.59
71424;BME280;59240;51.370;-0.486;2023-03-01T05:20:30;103010.06;;;6.15;71.98
71424;BME280;59240;51.370;-0.486;2023-03-01T05:22:58;102996.97;;;6.10;72.44
71424;BME280;59240;51.370;-0.486;2023-03-01T05:25:26;102950.34;;;5.83;72.17
71424;BME280;59240;51.370;-0.486;2023-03-01T05:27:53;102997.78;;;6.09;73.28
71424;BME280;59240;51.370;-0.486;2023-03-01T05:30:19;102987.31;;;6.05;72.45
71424;BME280;59240;51.370;-0.486;2023-03-01T05:32:49;102961.06;;;5.92;72.90
71424;BME280;59240;51.370;-0.486;2023-03-01T05:35:17;102994.44;;;6.12;72.05
71424;BME280;59240;51.370;-0.486;2023-03-01T05:37:46;102983.25;;;6.13;72.72
71424;BME280;59240;51.370;-0.486;2023-03-01T05:40:16;102989.28;;;6.12;73.29
71424;BME280;59240;51.370;-0.486;2023-03-01T05:42:45;102989.31;;;6.13;72.78
71424;BME280;59240;51.370;-0.486;2023-03-01T05:45:12;102986.78;;;6.15;71.86
71424;BME280;59240;51.370;-0.486;2023-03-01T05:47:43;102979.78;;;6.12;71.82
71424;BME280;59240;51.370;-0.486;2023-03-01T05:50:16;102978.91;;;6.12;73.00
71424;BME280;59240;51.370;-0.486;2023-03-01T05:52:48;102981.34;;;6.07;72.97
71424;BME280;59240;51.370;-0.486;2023-03-01T05:55:17;102971.63;;;6.00;72.43
71424;BME280;59240;51.370;-0.486;2023-03-01T05:57:44;102979.47;;;6.03;72.58
71424;BME280;59240;51.370;-0.486;2023-03-01T06:00:13;102989.06;;;6.06;72.71
71424;BME280;59240;51.370;-0.486;2023-03-01T06:02:41;102969.84;;;5.97;72.46
71424;BME280;59240;51.370;-0.486;2023-03-01T06:05:09;102984.78;;;6.06;72.83
71424;BME280;59240;51.370;-0.486;2023-03-01T06:07:36;102978.72;;;6.06;73.22
71424;BME280;59240;51.370;-0.486;2023-03-01T06:10:05;102940.00;;;5.83;73.15
71424;BME280;59240;51.370;-0.486;2023-03-01T06:12:33;102971.09;;;6.10;72.22
71424;BME280;59240;51.370;-0.486;2023-03-01T06:15:01;102957.63;;;5.93;73.15
71424;BME280;59240;51.370;-0.486;2023-03-01T06:17:33;102949.03;;;5.94;73.45
71424;BME280;59240;51.370;-0.486;2023-03-01T06:20:05;102984.09;;;6.12;72.32
71424;BME280;59240;51.370;-0.486;2023-03-01T06:22:43;102967.34;;;6.00;72.63
71424;BME280;59240;51.370;-0.486;2023-03-01T06:25:10;102953.50;;;5.98;73.04
71424;BME280;59240;51.370;-0.486;2023-03-01T06:27:39;102985.84;;;6.13;73.46
71424;BME280;59240;51.370;-0.486;2023-03-01T06:30:07;102974.56;;;6.11;73.08
71424;BME280;59240;51.370;-0.486;2023-03-01T06:32:34;102972.69;;;6.05;72.81
71424;BME280;59240;51.370;-0.486;2023-03-01T06:35:01;102981.59;;;6.15;72.51
71424;BME280;59240;51.370;-0.486;2023-03-01T06:37:27;102956.94;;;5.99;72.64
71424;BME280;59240;51.370;-0.486;2023-03-01T06:39:54;102958.78;;;6.03;73.91
71424;BME280;59240;51.370;-0.486;2023-03-01T06:42:20;102958.59;;;5.97;73.36
71424;BME280;59240;51.370;-0.486;2023-03-01T06:44:47;102990.34;;;6.18;72.88
71424;BME280;59240;51.370;-0.486;2023-03-01T06:47:13;102961.25;;;5.98;72.81
71424;BME280;59240;51.370;-0.486;2023-03-01T06:49:41;102997.41;;;6.24;72.82
71424;BME280;59240;51.370;-0.486;2023-03-01T06:52:07;102991.22;;;6.19;73.50
71424;BME280;59240;51.370;-0.486;2023-03-01T06:54:34;102999.09;;;6.23;72.92
71424;BME280;59240;51.370;-0.486;2023-03-01T06:57:00;102992.22;;;6.24;73.40
71424;BME280;59240;51.370;-0.486;2023-03-01T06:59:27;102973.63;;;6.09;72.45
71424;BME280;59240;51.370;-0.486;2023-03-01T07:01:53;102976.25;;;6.10;72.66
71424;BME280;59240;51.370;-0.486;2023-03-01T07:04:20;103004.19;;;6.20;72.90
71424;BME280;59240;51.370;-0.486;2023-03-01T07:06:46;102999.03;;;6.20;73.32
71424;BME280;59240;51.370;-0.486;2023-03-01T07:09:24;103005.16;;;6.24;73.83
71424;BME280;59240;51.370;-0.486;2023-03-01T07:11:57;103006.13;;;6.26;72.85
71424;BME280;59240;51.370;-0.486;2023-03-01T07:14:23;103005.16;;;6.24;73.16
71424;BME280;59240;51.370;-0.486;2023-03-01T07:16:53;102999.94;;;6.22;73.46
71424;BME280;59240;51.370;-0.486;2023-03-01T07:19:21;102989.47;;;6.18;73.72
71424;BME280;59240;51.370;-0.486;2023-03-01T07:21:48;102981.44;;;6.10;73.54
71424;BME280;59240;51.370;-0.486;2023-03-01T07:24:14;102977.13;;;6.11;72.96
71424;BME280;59240;51.370;-0.486;2023-03-01T07:26:41;102976.19;;;6.07;73.04
71424;BME280;59240;51.370;-0.486;2023-03-01T07:29:09;103018.41;;;6.33;73.05
71424;BME280;59240;51.370;-0.486;2023-03-01T07:31:36;102999.91;;;6.21;73.39
71424;BME280;59240;51.370;-0.486;2023-03-01T07:34:06;102964.84;;;6.03;73.06
71424;BME280;59240;51.370;-0.486;2023-03-01T07:36:33;102975.50;;;6.13;73.15
71424;BME280;59240;51.370;-0.486;2023-03-01T07:39:00;102968.56;;;6.12;72.81
71424;BME280;59240;51.370;-0.486;2023-03-01T07:41:29;103010.84;;;6.39;73.19
71424;BME280;59240;51.370;-0.486;2023-03-01T07:43:55;103005.56;;;6.36;73.40
71424;BME280;59240;51.370;-0.486;2023-03-01T07:46:22;102928.44;;;5.97;73.42
71424;BME280;59240;51.370;-0.486;2023-03-01T07:48:49;103004.00;;;6.41;72.61
71424;BME280;59240;51.370;-0.486;2023-03-01T07:51:18;102997.06;;;6.40;73.71
71424;BME280;59240;51.370;-0.486;2023-03-01T07:53:47;102963.06;;;6.29;73.22
71424;BME280;59240;51.370;-0.486;2023-03-01T07:56:17;102996.41;;;6.47;72.79
71424;BME280;59240;51.370;-0.486;2023-03-01T07:58:47;103006.81;;;6.49;72.86
71424;BME280;59240;51.370;-0.486;2023-03-01T08:01:18;102981.53;;;6.40;71.99
71424;BME280;59240;51.370;-0.486;2023-03-01T08:03:45;103005.25;;;6.54;73.00
71424;BME280;59240;51.370;-0.486;2023-03-01T08:06:14;102996.69;;;6.56;72.33
71424;BME280;59240;51.370;-0.486;2023-03-01T08:08:41;102986.97;;;6.49;72.56
71424;BME280;59240;51.370;-0.486;2023-03-01T08:11:11;103001.13;;;6.61;72.50
71424;BME280;59240;51.370;-0.486;2023-03-01T08:13:38;102954.66;;;6.37;72.51
71424;BME280;59240;51.370;-0.486;2023-03-01T08:16:14;102958.22;;;6.40;72.42
71424;BME280;59240;51.370;-0.486;2023-03-01T08:18:42;102967.91;;;6.46;72.46
71424;BME280;59240;51.370;-0.486;2023-03-01T08:21:15;102997.78;;;6.65;72.05
71424;BME280;59240;51.370;-0.486;2023-03-01T08:23:53;102931.25;;;6.32;72.59
71424;BME280;59240;51.370;-0.486;2023-03-01T08:26:23;102925.06;;;6.28;72.68
71424;BME280;59240;51.370;-0.486;2023-03-01T08:28:50;102989.28;;;6.69;72.28
71424;BME280;59240;51.370;-0.486;2023-03-01T08:31:26;102942.03;;;6.47;72.24
71424;BME280;59240;51.370;-0.486;2023-03-01T08:34:02;102991.38;;;6.80;72.58
71424;BME280;59240;51.370;-0.486;2023-03-01T08:36:35;102979.19;;;6.78;72.31
71424;BME280;59240;51.370;-0.486;2023-03-01T08:39:04;103001.19;;;6.92;71.83
71424;BME280;59240;51.370;-0.486;2023-03-01T08:41:30;102988.03;;;6.86;72.06
71424;BME280;59240;51.370;-0.486;2023-03-01T08:43:57;102977.69;;;6.86;71.55
71424;BME280;59240;51.370;-0.486;2023-03-01T08:46:28;102997.13;;;7.00;71.95
71424;BME280;59240;51.370;-0.486;2023-03-01T08:48:56;102957.75;;;6.83;71.44
71424;BME280;59240;51.370;-0.486;2023-03-01T08:51:24;102989.38;;;7.02;71.53
71424;BME280;59240;51.370;-0.486;2023-03-01T08:53:51;102996.53;;;7.10;71.63
71424;BME280;59240;51.370;-0.486;2023-03-01T08:56:18;102990.59;;;7.15;71.36
71424;BME280;59240;51.370;-0.486;2023-03-01T08:58:47;102995.97;;;7.21;71.75
71424;BME280;59240;51.370;-0.486;2023-03-01T09:01:17;102975.28;;;7.24;71.03
71424;BME280;59240;51.370;-0.486;2023-03-01T09:03:45;102974.78;;;7.37;71.17
71424;BME280;59240;51.370;-0.486;2023-03-01T09:06:12;102977.69;;;7.49;71.04
71424;BME280;59240;51.370;-0.486;2023-03-01T09:08:45;102902.63;;;7.21;70.50
71424;BME280;59240;51.370;-0.486;2023-03-01T09:11:20;102937.09;;;7.51;70.81
71424;BME280;59240;51.370;-0.486;2023-03-01T09:13:48;102936.41;;;7.58;70.03
71424;BME280;59240;51.370;-0.486;2023-03-01T09:16:20;102976.00;;;7.84;69.60
71424;BME280;59240;51.370;-0.486;2023-03-01T09:18:53;102926.25;;;7.67;69.47
71424;BME280;59240;51.370;-0.486;2023-03-01T09:21:22;102955.44;;;7.93;69.37
71424;BME280;59240;51.370;-0.486;2023-03-01T09:24:05;102952.31;;;8.08;69.44
71424;BME280;59240;51.370;-0.486;2023-03-01T09:26:32;102942.97;;;8.16;68.50
71424;BME280;59240;51.370;-0.486;2023-03-01T09:28:59;102946.56;;;8.21;68.18
71424;BME280;59240;51.370;-0.486;2023-03-01T09:31:26;102893.25;;;7.98;68.27
71424;BME280;59240;51.370;-0.486;2023-03-01T09:33:53;102946.22;;;8.44;67.44
71424;BME280;59240;51.370;-0.486;2023-03-01T09:36:23;102945.59;;;8.54;67.10
71424;BME280;59240;51.370;-0.486;2023-03-01T09:38:51;102935.38;;;8.63;67.40
71424;BME280;59240;51.370;-0.486;2023-03-01T09:44:38;102941.06;;;8.88;64.85
71424;BME280;59240;51.370;-0.486;2023-03-01T09:47:12;102939.50;;;8.96;65.15
71424;BME280;59240;51.370;-0.486;2023-03-01T09:49:43;102922.28;;;9.01;65.60
71424;BME280;59240;51.370;-0.486;2023-03-01T09:52:35;102936.50;;;9.21;65.98
71424;BME280;59240;51.370;-0.486;2023-03-01T09:55:08;102932.22;;;9.23;65.20
71424;BME280;59240;51.370;-0.486;2023-03-01T09:57:43;102925.44;;;9.33;64.12
71424;BME280;59240;51.370;-0.486;2023-03-01T10:00:22;102904.44;;;9.22;64.60
71424;BME280;59240;51.370;-0.486;2023-03-01T10:03:07;102885.88;;;9.01;63.73
71424;BME280;59240;51.370;-0.486;2023-03-01T10:05:46;102913.72;;;9.08;63.77
71424;BME280;59240;51.370;-0.486;2023-03-01T10:10:45;102901.22;;;8.89;65.21
71424;BME280;59240;51.370;-0.486;2023-03-01T10:16:40;102924.13;;;9.08;63.10
71424;BME280;59240;51.370;-0.486;2023-03-01T10:22:22;102888.00;;;9.25;64.15
71424;BME280;59240;51.370;-0.486;2023-03-01T10:24:51;102889.84;;;9.29;63.99
71424;BME280;59240;51.370;-0.486;2023-03-01T10:27:29;102910.91;;;9.46;64.12
71424;BME280;59240;51.370;-0.486;2023-03-01T10:30:17;102911.72;;;9.40;63.83
71424;BME280;59240;51.370;-0.486;2023-03-01T10:32:48;102903.56;;;9.20;63.59
71424;BME280;59240;51.370;-0.486;2023-03-01T10:35:26;102871.94;;;8.97;63.28
71424;BME280;59240;51.370;-0.486;2023-03-01T10:38:13;102912.28;;;9.25;61.70
71424;BME280;59240;51.370;-0.486;2023-03-01T10:40:55;102907.94;;;9.24;62.66
71424;BME280;59240;51.370;-0.486;2023-03-01T10:43:32;102897.25;;;9.06;63.84
71424;BME280;59240;51.370;-0.486;2023-03-01T10:46:31;102901.53;;;9.05;61.94
71424;BME280;59240;51.370;-0.486;2023-03-01T10:49:21;102901.59;;;9.07;63.46
71424;BME280;59240;51.370;-0.486;2023-03-01T10:51:50;102900.59;;;9.00;63.81
71424;BME280;59240;51.370;-0.486;2023-03-01T10:54:29;102885.59;;;8.86;61.67
71424;BME280;59240;51.370;-0.486;2023-03-01T10:57:04;102840.16;;;8.65;63.84
71424;BME280;59240;51.370;-0.486;2023-03-01T10:59:35;102877.94;;;8.93;64.01
71424;BME280;59240;51.370;-0.486;2023-03-01T11:04:56;102850.31;;;9.00;63.78
71424;BME280;59240;51.370;-0.486;2023-03-01T11:07:23;102839.94;;;9.00;63.22
71424;BME280;59240;51.370;-0.486;2023-03-01T11:09:50;102813.75;;;8.91;63.15
71424;BME280;59240;51.370;-0.486;2023-03-01T11:12:17;102862.97;;;9.30;63.64
71424;BME280;59240;51.370;-0.486;2023-03-01T11:14:52;102847.16;;;9.18;62.88
71424;BME280;59240;51.370;-0.486;2023-03-01T11:17:31;102868.25;;;9.35;63.37
71424;BME280;59240;51.370;-0.486;2023-03-01T11:22:49;102860.59;;;9.44;62.53
71424;BME280;59240;51.370;-0.486;2023-03-01T11:25:19;102855.50;;;9.50;62.69
71424;BME280;59240;51.370;-0.486;2023-03-01T11:27:48;102832.88;;;9.46;62.82
71424;BME280;59240;51.370;-0.486;2023-03-01T11:30:31;102818.84;;;9.36;61.57
71424;BME280;59240;51.370;-0.486;2023-03-01T11:33:13;102847.78;;;9.57;61.78
71424;BME280;59240;51.370;-0.486;2023-03-01T11:35:49;102840.72;;;9.49;61.26
71424;BME280;59240;51.370;-0.486;2023-03-01T11:38:25;102818.84;;;9.35;63.09
71424;BME280;59240;51.370;-0.486;2023-03-01T11:41:20;102839.78;;;9.44;60.24
71424;BME280;59240;51.370;-0.486;2023-03-01T11:46:36;102838.16;;;9.52;62.58
71424;BME280;59240;51.370;-0.486;2023-03-01T11:49:37;102812.91;;;9.46;61.52
71424;BME280;59240;51.370;-0.486;2023-03-01T12:06:12;102807.78;;;9.49;60.34
71424;BME280;59240;51.370;-0.486;2023-03-01T12:11:46;102801.81;;;9.55;62.44
71424;BME280;59240;51.370;-0.486;2023-03-01T12:25:16;102785.16;;;9.45;61.18
71424;BME280;59240;51.370;-0.486;2023-03-01T12:31:25;102767.13;;;9.57;59.88
71424;BME280;59240;51.370;-0.486;2023-03-01T12:34:02;102763.75;;;9.63;62.05
71424;BME280;59240;51.370;-0.486;2023-03-01T12:45:43;102729.25;;;9.79;61.35
71424;BME280;59240;51.370;-0.486;2023-03-01T12:51:06;102726.47;;;9.67;61.12
71424;BME280;59240;51.370;-0.486;2023-03-01T12:53:39;102696.78;;;9.50;60.56
71424;BME280;59240;51.370;-0.486;2023-03-01T12:56:09;102674.81;;;9.26;61.17
71424;BME280;59240;51.370;-0.486;2023-03-01T12:59:14;102716.66;;;9.45;61.66
71424;BME280;59240;51.370;-0.486;2023-03-01T13:04:51;102713.00;;;9.32;60.69
71424;BME280;59240;51.370;-0.486;2023-03-01T13:07:35;102678.13;;;9.16;60.96
71424;BME280;59240;51.370;-0.486;2023-03-01T13:10:50;102700.06;;;9.37;60.94
71424;BME280;59240;51.370;-0.486;2023-03-01T13:17:54;102676.03;;;9.54;61.53
71424;BME280;59240;51.370;-0.486;2023-03-01T13:20:34;102683.06;;;9.63;60.45
71424;BME280;59240;51.370;-0.486;2023-03-01T13:23:23;102650.81;;;9.49;60.92
71424;BME280;59240;51.370;-0.486;2023-03-01T13:28:49;102682.31;;;9.73;60.69
71424;BME280;59240;51.370;-0.486;2023-03-01T13:33:47;102677.97;;;9.72;60.83
71424;BME280;59240;51.370;-0.486;2023-03-01T13:38:58;102672.84;;;9.80;61.29
71424;BME280;59240;51.370;-0.486;2023-03-01T13:41:52;102671.13;;;9.80;61.56
71424;BME280;59240;51.370;-0.486;2023-03-01T13:46:56;102656.22;;;9.66;60.56
71424;BME280;59240;51.370;-0.486;2023-03-01T13:49:29;102643.00;;;9.47;61.41
71424;BME280;59240;51.370;-0.486;2023-03-01T13:52:44;102662.25;;;9.62;61.70
71424;BME280;59240;51.370;-0.486;2023-03-01T13:57:44;102628.03;;;9.31;61.24
71424;BME280;59240;51.370;-0.486;2023-03-01T14:05:34;102643.72;;;9.39;60.80
71424;BME280;59240;51.370;-0.486;2023-03-01T14:08:19;102624.53;;;9.27;61.06
71424;BME280;59240;51.370;-0.486;2023-03-01T14:13:34;102633.38;;;9.40;60.76
71424;BME280;59240;51.370;-0.486;2023-03-01T14:21:39;102608.09;;;9.33;61.61
71424;BME280;59240;51.370;-0.486;2023-03-01T14:24:17;102600.34;;;9.35;61.10
71424;BME280;59240;51.370;-0.486;2023-03-01T14:26:44;102582.00;;;9.24;61.27
71424;BME280;59240;51.370;-0.486;2023-03-01T14:29:35;102611.72;;;9.43;60.58
71424;BME280;59240;51.370;-0.486;2023-03-01T14:32:16;102611.66;;;9.40;60.04
71424;BME280;59240;51.370;-0.486;2023-03-01T14:34:47;102600.34;;;9.35;59.48
71424;BME280;59240;51.370;-0.486;2023-03-01T14:37:24;102601.28;;;9.41;59.55
71424;BME280;59240;51.370;-0.486;2023-03-01T14:39:51;102606.56;;;9.47;59.64
71424;BME280;59240;51.370;-0.486;2023-03-01T14:42:20;102591.06;;;9.55;61.19
71424;BME280;59240;51.370;-0.486;2023-03-01T14:44:50;102593.81;;;9.69;60.39
71424;BME280;59240;51.370;-0.486;2023-03-01T14:47:34;102579.06;;;9.68;58.83
71424;BME280;59240;51.370;-0.486;2023-03-01T14:50:08;102584.41;;;9.83;60.83
71424;BME280;59240;51.370;-0.486;2023-03-01T14:52:41;102585.28;;;9.86;59.66
71424;BME280;59240;51.370;-0.486;2023-03-01T14:55:21;102546.97;;;9.73;58.89
71424;BME280;59240;51.370;-0.486;2023-03-01T14:57:50;102581.00;;;9.89;59.62
71424;BME280;59240;51.370;-0.486;2023-03-01T15:00:29;102553.94;;;9.74;59.78
71424;BME280;59240;51.370;-0.486;2023-03-01T15:03:08;102555.69;;;9.75;59.89